EIDW

Dublin Airport

Dublin, Ireland
METAR EIDW 151930Z 29011KT 9999 FEW024 SCT240 02/00 Q1015 NOSIG
Observed Flight Rules
Dec-15 @ 19:30 UTC (25 minutes ago) Visual Flight Rules
Wind Visibility Clouds
290° at 11 knots 10,000+ meters
  • Few at 2,400' AGL
  • Scattered at 24,000' AGL
Temperatures Readings
Current 2°C / 36°F
Dewpoint 0°C / 32°F
Humidity 87%
Altimeter 29.97" Hg
Pressure 1015 hPa
Elevation 85
METAR EIDW 151930Z 29011KT 9999 FEW024 SCT240 02/00 Q1015 NOSIG
Observed Flight Rules
Dec-15 @ 19:30 UTC
(25 minutes ago)
VFR
Wind Visibility
290° at 11 knots 10,000+ meters
Clouds
  • Few at 2,400' AGL
  • Scattered at 24,000' AGL
Temperature Dewpoint
2°C / 36°F 0°C / 32°F
Humidity Altimeter Pressure
87% 29.97" Hg 1015 hPa